sensor_id;sensor_type;location;lat;lon;timestamp;P1;durP1;ratioP1;P2;durP2;ratioP2
26822;SDS011;14852;51.910;8.878;2022-08-02T00:02:23;3.10;;;2.08;;
26822;SDS011;14852;51.910;8.878;2022-08-02T00:04:49;3.45;;;2.03;;
26822;SDS011;14852;51.910;8.878;2022-08-02T00:07:16;2.67;;;1.85;;
26822;SDS011;14852;51.910;8.878;2022-08-02T00:09:42;3.10;;;2.00;;
26822;SDS011;14852;51.910;8.878;2022-08-02T00:12:08;4.00;;;2.00;;
26822;SDS011;14852;51.910;8.878;2022-08-02T00:14:34;3.25;;;1.90;;
26822;SDS011;14852;51.910;8.878;2022-08-02T00:17:00;6.63;;;2.35;;
26822;SDS011;14852;51.910;8.878;2022-08-02T00:19:26;3.50;;;2.08;;
26822;SDS011;14852;51.910;8.878;2022-08-02T00:21:51;3.75;;;2.60;;
26822;SDS011;14852;51.910;8.878;2022-08-02T00:24:17;4.60;;;2.15;;
26822;SDS011;14852;51.910;8.878;2022-08-02T00:26:43;5.53;;;2.40;;
26822;SDS011;14852;51.910;8.878;2022-08-02T00:29:09;3.03;;;2.28;;
26822;SDS011;14852;51.910;8.878;2022-08-02T00:31:35;5.13;;;2.80;;
26822;SDS011;14852;51.910;8.878;2022-08-02T00:34:00;2.03;;;1.83;;
26822;SDS011;14852;51.910;8.878;2022-08-02T00:36:26;6.22;;;3.00;;
26822;SDS011;14852;51.910;8.878;2022-08-02T00:38:52;4.30;;;1.85;;
26822;SDS011;14852;51.910;8.878;2022-08-02T00:41:18;4.63;;;2.30;;
26822;SDS011;14852;51.910;8.878;2022-08-02T00:43:46;2.63;;;1.70;;
26822;SDS011;14852;51.910;8.878;2022-08-02T00:46:13;2.72;;;1.77;;
26822;SDS011;14852;51.910;8.878;2022-08-02T00:48:41;5.72;;;2.45;;
26822;SDS011;14852;51.910;8.878;2022-08-02T00:51:06;4.20;;;2.15;;
26822;SDS011;14852;51.910;8.878;2022-08-02T00:53:32;4.68;;;2.03;;
26822;SDS011;14852;51.910;8.878;2022-08-02T00:55:58;5.45;;;2.05;;
26822;SDS011;14852;51.910;8.878;2022-08-02T00:58:25;4.97;;;2.17;;
26822;SDS011;14852;51.910;8.878;2022-08-02T01:00:52;2.42;;;1.90;;
26822;SDS011;14852;51.910;8.878;2022-08-02T01:03:18;4.00;;;2.28;;
26822;SDS011;14852;51.910;8.878;2022-08-02T01:05:44;2.85;;;2.17;;
26822;SDS011;14852;51.910;8.878;2022-08-02T01:08:10;3.22;;;2.30;;
26822;SDS011;14852;51.910;8.878;2022-08-02T01:10:36;2.17;;;1.98;;
26822;SDS011;14852;51.910;8.878;2022-08-02T01:13:02;3.33;;;2.35;;
26822;SDS011;14852;51.910;8.878;2022-08-02T01:15:27;2.78;;;2.00;;
26822;SDS011;14852;51.910;8.878;2022-08-02T01:17:57;2.50;;;1.80;;
26822;SDS011;14852;51.910;8.878;2022-08-02T01:20:47;3.95;;;1.83;;
26822;SDS011;14852;51.910;8.878;2022-08-02T01:24:06;4.60;;;2.10;;
26822;SDS011;14852;51.910;8.878;2022-08-02T01:29:58;4.57;;;1.75;;
26822;SDS011;14852;51.910;8.878;2022-08-02T01:32:27;3.13;;;1.88;;
26822;SDS011;14852;51.910;8.878;2022-08-02T01:35:19;5.90;;;2.10;;
26822;SDS011;14852;51.910;8.878;2022-08-02T01:37:55;6.80;;;2.55;;
26822;SDS011;14852;51.910;8.878;2022-08-02T01:40:29;3.85;;;2.30;;
26822;SDS011;14852;51.910;8.878;2022-08-02T01:42:57;3.50;;;2.03;;
26822;SDS011;14852;51.910;8.878;2022-08-02T01:45:26;3.83;;;2.28;;
26822;SDS011;14852;51.910;8.878;2022-08-02T01:50:25;4.53;;;1.90;;
26822;SDS011;14852;51.910;8.878;2022-08-02T01:55:45;4.50;;;2.42;;
26822;SDS011;14852;51.910;8.878;2022-08-02T01:58:15;2.67;;;1.92;;
26822;SDS011;14852;51.910;8.878;2022-08-02T02:00:44;2.60;;;2.20;;
26822;SDS011;14852;51.910;8.878;2022-08-02T02:03:12;2.63;;;2.00;;
26822;SDS011;14852;51.910;8.878;2022-08-02T02:05:43;3.25;;;2.00;;
26822;SDS011;14852;51.910;8.878;2022-08-02T02:08:11;2.50;;;2.20;;
26822;SDS011;14852;51.910;8.878;2022-08-02T02:10:38;3.53;;;2.20;;
26822;SDS011;14852;51.910;8.878;2022-08-02T02:13:07;2.22;;;1.75;;
26822;SDS011;14852;51.910;8.878;2022-08-02T02:15:39;4.80;;;2.38;;
26822;SDS011;14852;51.910;8.878;2022-08-02T02:18:11;3.50;;;2.10;;
26822;SDS011;14852;51.910;8.878;2022-08-02T02:20:47;4.80;;;2.63;;
26822;SDS011;14852;51.910;8.878;2022-08-02T02:23:13;6.38;;;1.83;;
26822;SDS011;14852;51.910;8.878;2022-08-02T02:25:40;2.42;;;1.70;;
26822;SDS011;14852;51.910;8.878;2022-08-02T02:28:08;3.78;;;1.90;;
26822;SDS011;14852;51.910;8.878;2022-08-02T02:30:46;3.33;;;2.05;;
26822;SDS011;14852;51.910;8.878;2022-08-02T02:33:17;3.78;;;2.00;;
26822;SDS011;14852;51.910;8.878;2022-08-02T02:35:45;4.22;;;2.10;;
26822;SDS011;14852;51.910;8.878;2022-08-02T02:38:15;3.15;;;1.85;;
26822;SDS011;14852;51.910;8.878;2022-08-02T02:40:45;2.92;;;2.10;;
26822;SDS011;14852;51.910;8.878;2022-08-02T02:43:12;3.05;;;2.22;;
26822;SDS011;14852;51.910;8.878;2022-08-02T02:45:39;4.05;;;1.88;;
26822;SDS011;14852;51.910;8.878;2022-08-02T02:48:06;4.32;;;2.42;;
26822;SDS011;14852;51.910;8.878;2022-08-02T02:50:35;3.00;;;2.05;;
26822;SDS011;14852;51.910;8.878;2022-08-02T02:53:02;2.25;;;1.95;;
26822;SDS011;14852;51.910;8.878;2022-08-02T02:55:28;2.85;;;2.10;;
26822;SDS011;14852;51.910;8.878;2022-08-02T02:57:55;3.60;;;2.40;;
26822;SDS011;14852;51.910;8.878;2022-08-02T03:00:22;2.05;;;1.85;;
26822;SDS011;14852;51.910;8.878;2022-08-02T03:03:08;4.78;;;2.13;;
26822;SDS011;14852;51.910;8.878;2022-08-02T03:05:34;7.30;;;2.67;;
26822;SDS011;14852;51.910;8.878;2022-08-02T03:08:01;2.22;;;2.03;;
26822;SDS011;14852;51.910;8.878;2022-08-02T03:10:27;4.32;;;2.25;;
26822;SDS011;14852;51.910;8.878;2022-08-02T03:12:53;4.20;;;1.95;;
26822;SDS011;14852;51.910;8.878;2022-08-02T03:15:19;2.50;;;1.85;;
26822;SDS011;14852;51.910;8.878;2022-08-02T03:17:46;4.40;;;2.20;;
26822;SDS011;14852;51.910;8.878;2022-08-02T03:20:13;3.88;;;2.38;;
26822;SDS011;14852;51.910;8.878;2022-08-02T03:22:43;3.25;;;2.13;;
26822;SDS011;14852;51.910;8.878;2022-08-02T03:25:10;4.28;;;2.72;;
26822;SDS011;14852;51.910;8.878;2022-08-02T03:27:37;3.60;;;2.17;;
26822;SDS011;14852;51.910;8.878;2022-08-02T03:30:04;5.18;;;2.38;;
26822;SDS011;14852;51.910;8.878;2022-08-02T03:32:32;4.65;;;2.70;;
26822;SDS011;14852;51.910;8.878;2022-08-02T03:35:00;3.58;;;2.53;;
26822;SDS011;14852;51.910;8.878;2022-08-02T03:37:27;5.88;;;2.83;;
26822;SDS011;14852;51.910;8.878;2022-08-02T03:39:55;5.93;;;3.38;;
26822;SDS011;14852;51.910;8.878;2022-08-02T03:42:22;6.30;;;3.70;;
26822;SDS011;14852;51.910;8.878;2022-08-02T03:44:50;5.22;;;3.13;;
26822;SDS011;14852;51.910;8.878;2022-08-02T03:47:17;4.57;;;3.33;;
26822;SDS011;14852;51.910;8.878;2022-08-02T03:49:43;5.85;;;3.53;;
26822;SDS011;14852;51.910;8.878;2022-08-02T03:52:10;4.60;;;3.33;;
26822;SDS011;14852;51.910;8.878;2022-08-02T03:54:36;4.95;;;3.45;;
26822;SDS011;14852;51.910;8.878;2022-08-02T03:57:04;6.75;;;3.72;;
26822;SDS011;14852;51.910;8.878;2022-08-02T03:59:40;4.93;;;3.75;;
26822;SDS011;14852;51.910;8.878;2022-08-02T04:02:09;5.13;;;3.80;;
26822;SDS011;14852;51.910;8.878;2022-08-02T04:04:36;5.20;;;3.55;;
26822;SDS011;14852;51.910;8.878;2022-08-02T04:07:02;3.95;;;3.55;;
26822;SDS011;14852;51.910;8.878;2022-08-02T04:09:28;5.07;;;3.28;;
26822;SDS011;14852;51.910;8.878;2022-08-02T04:11:54;5.38;;;3.60;;
26822;SDS011;14852;51.910;8.878;2022-08-02T04:14:19;7.20;;;4.60;;
26822;SDS011;14852;51.910;8.878;2022-08-02T04:16:51;5.28;;;3.70;;
26822;SDS011;14852;51.910;8.878;2022-08-02T04:19:33;6.95;;;4.20;;
26822;SDS011;14852;51.910;8.878;2022-08-02T04:22:20;6.43;;;3.55;;
26822;SDS011;14852;51.910;8.878;2022-08-02T04:24:56;6.00;;;3.42;;
26822;SDS011;14852;51.910;8.878;2022-08-02T04:27:25;8.18;;;4.00;;
26822;SDS011;14852;51.910;8.878;2022-08-02T04:29:51;4.93;;;3.40;;
26822;SDS011;14852;51.910;8.878;2022-08-02T04:32:18;4.28;;;3.88;;
26822;SDS011;14852;51.910;8.878;2022-08-02T04:34:46;5.63;;;4.07;;
26822;SDS011;14852;51.910;8.878;2022-08-02T04:37:12;6.90;;;3.53;;
26822;SDS011;14852;51.910;8.878;2022-08-02T04:39:41;6.90;;;4.50;;
26822;SDS011;14852;51.910;8.878;2022-08-02T04:42:08;4.40;;;4.00;;
26822;SDS011;14852;51.910;8.878;2022-08-02T04:44:34;4.82;;;4.32;;
26822;SDS011;14852;51.910;8.878;2022-08-02T04:47:00;5.40;;;4.20;;
26822;SDS011;14852;51.910;8.878;2022-08-02T04:49:27;6.20;;;4.07;;
26822;SDS011;14852;51.910;8.878;2022-08-02T04:51:53;5.25;;;3.75;;
26822;SDS011;14852;51.910;8.878;2022-08-02T04:54:19;5.85;;;4.32;;
26822;SDS011;14852;51.910;8.878;2022-08-02T04:56:45;5.72;;;4.13;;
26822;SDS011;14852;51.910;8.878;2022-08-02T04:59:11;4.72;;;3.90;;
26822;SDS011;14852;51.910;8.878;2022-08-02T05:01:37;5.80;;;3.95;;
26822;SDS011;14852;51.910;8.878;2022-08-02T05:04:03;5.00;;;4.22;;
26822;SDS011;14852;51.910;8.878;2022-08-02T05:06:30;4.78;;;3.88;;
26822;SDS011;14852;51.910;8.878;2022-08-02T05:08:56;6.38;;;3.95;;
26822;SDS011;14852;51.910;8.878;2022-08-02T05:11:22;5.88;;;4.00;;
26822;SDS011;14852;51.910;8.878;2022-08-02T05:13:49;5.97;;;4.72;;
26822;SDS011;14852;51.910;8.878;2022-08-02T05:16:15;7.55;;;4.30;;
26822;SDS011;14852;51.910;8.878;2022-08-02T05:18:41;5.50;;;4.00;;
26822;SDS011;14852;51.910;8.878;2022-08-02T05:21:07;8.65;;;4.80;;
26822;SDS011;14852;51.910;8.878;2022-08-02T05:23:33;5.40;;;4.57;;
26822;SDS011;14852;51.910;8.878;2022-08-02T05:25:59;7.32;;;4.80;;
26822;SDS011;14852;51.910;8.878;2022-08-02T05:28:25;7.68;;;5.07;;
26822;SDS011;14852;51.910;8.878;2022-08-02T05:30:51;6.60;;;4.05;;
26822;SDS011;14852;51.910;8.878;2022-08-02T05:33:17;3.95;;;3.55;;
26822;SDS011;14852;51.910;8.878;2022-08-02T05:35:42;5.47;;;4.00;;
26822;SDS011;14852;51.910;8.878;2022-08-02T05:38:08;5.07;;;4.43;;
26822;SDS011;14852;51.910;8.878;2022-08-02T05:40:34;4.57;;;3.58;;
26822;SDS011;14852;51.910;8.878;2022-08-02T05:43:00;4.00;;;3.60;;
26822;SDS011;14852;51.910;8.878;2022-08-02T05:45:26;4.18;;;3.33;;
26822;SDS011;14852;51.910;8.878;2022-08-02T05:47:51;5.35;;;3.40;;
26822;SDS011;14852;51.910;8.878;2022-08-02T05:50:17;4.00;;;3.42;;
26822;SDS011;14852;51.910;8.878;2022-08-02T05:52:45;3.85;;;3.15;;
26822;SDS011;14852;51.910;8.878;2022-08-02T05:58:17;3.63;;;3.17;;
26822;SDS011;14852;51.910;8.878;2022-08-02T06:00:55;6.10;;;3.60;;
26822;SDS011;14852;51.910;8.878;2022-08-02T06:03:25;5.22;;;3.30;;
26822;SDS011;14852;51.910;8.878;2022-08-02T06:06:06;6.38;;;3.25;;
26822;SDS011;14852;51.910;8.878;2022-08-02T06:08:42;3.20;;;2.83;;
26822;SDS011;14852;51.910;8.878;2022-08-02T06:11:15;5.22;;;3.97;;
26822;SDS011;14852;51.910;8.878;2022-08-02T06:13:46;5.47;;;3.72;;
26822;SDS011;14852;51.910;8.878;2022-08-02T06:16:12;5.32;;;3.75;;
26822;SDS011;14852;51.910;8.878;2022-08-02T06:18:41;3.67;;;3.33;;
26822;SDS011;14852;51.910;8.878;2022-08-02T06:21:08;3.35;;;2.95;;
26822;SDS011;14852;51.910;8.878;2022-08-02T06:23:38;4.72;;;3.38;;
26822;SDS011;14852;51.910;8.878;2022-08-02T06:26:06;5.27;;;3.90;;
26822;SDS011;14852;51.910;8.878;2022-08-02T06:28:36;6.22;;;4.13;;
26822;SDS011;14852;51.910;8.878;2022-08-02T06:31:03;5.32;;;3.80;;
26822;SDS011;14852;51.910;8.878;2022-08-02T06:33:30;3.85;;;3.38;;
26822;SDS011;14852;51.910;8.878;2022-08-02T06:36:00;4.30;;;3.90;;
26822;SDS011;14852;51.910;8.878;2022-08-02T06:38:45;6.75;;;4.10;;
26822;SDS011;14852;51.910;8.878;2022-08-02T06:41:48;4.63;;;3.95;;
26822;SDS011;14852;51.910;8.878;2022-08-02T06:44:22;5.07;;;3.97;;
26822;SDS011;14852;51.910;8.878;2022-08-02T06:46:48;5.18;;;4.20;;
26822;SDS011;14852;51.910;8.878;2022-08-02T06:49:14;4.45;;;4.05;;
26822;SDS011;14852;51.910;8.878;2022-08-02T06:51:39;4.88;;;3.97;;
26822;SDS011;14852;51.910;8.878;2022-08-02T06:54:05;3.85;;;3.22;;
26822;SDS011;14852;51.910;8.878;2022-08-02T06:56:31;5.38;;;4.13;;
26822;SDS011;14852;51.910;8.878;2022-08-02T06:58:57;7.60;;;3.80;;
26822;SDS011;14852;51.910;8.878;2022-08-02T07:01:23;5.00;;;3.40;;
26822;SDS011;14852;51.910;8.878;2022-08-02T07:03:49;4.60;;;3.22;;
26822;SDS011;14852;51.910;8.878;2022-08-02T07:06:14;4.03;;;3.63;;
26822;SDS011;14852;51.910;8.878;2022-08-02T07:08:40;3.67;;;3.33;;
26822;SDS011;14852;51.910;8.878;2022-08-02T07:11:07;5.80;;;3.90;;
26822;SDS011;14852;51.910;8.878;2022-08-02T07:13:34;4.15;;;3.00;;
26822;SDS011;14852;51.910;8.878;2022-08-02T07:16:01;5.45;;;3.10;;
26822;SDS011;14852;51.910;8.878;2022-08-02T07:18:28;4.75;;;3.75;;
26822;SDS011;14852;51.910;8.878;2022-08-02T07:20:54;4.05;;;3.30;;
26822;SDS011;14852;51.910;8.878;2022-08-02T07:23:20;4.93;;;4.43;;
26822;SDS011;14852;51.910;8.878;2022-08-02T07:25:46;6.28;;;3.60;;
26822;SDS011;14852;51.910;8.878;2022-08-02T07:28:12;5.90;;;3.97;;
26822;SDS011;14852;51.910;8.878;2022-08-02T07:30:40;5.15;;;3.13;;
26822;SDS011;14852;51.910;8.878;2022-08-02T07:33:06;4.93;;;3.08;;
26822;SDS011;14852;51.910;8.878;2022-08-02T07:35:32;5.80;;;3.28;;
26822;SDS011;14852;51.910;8.878;2022-08-02T07:37:58;3.15;;;2.80;;
26822;SDS011;14852;51.910;8.878;2022-08-02T07:40:24;3.60;;;2.97;;
26822;SDS011;14852;51.910;8.878;2022-08-02T07:42:51;3.55;;;3.08;;
26822;SDS011;14852;51.910;8.878;2022-08-02T07:45:19;5.00;;;2.90;;
26822;SDS011;14852;51.910;8.878;2022-08-02T07:47:46;5.30;;;2.47;;
26822;SDS011;14852;51.910;8.878;2022-08-02T07:50:13;4.30;;;3.05;;
26822;SDS011;14852;51.910;8.878;2022-08-02T07:52:42;4.50;;;3.10;;
26822;SDS011;14852;51.910;8.878;2022-08-02T07:55:09;5.65;;;3.00;;
26822;SDS011;14852;51.910;8.878;2022-08-02T07:57:37;4.38;;;3.20;;
26822;SDS011;14852;51.910;8.878;2022-08-02T08:00:05;3.70;;;3.10;;
26822;SDS011;14852;51.910;8.878;2022-08-02T08:02:38;4.28;;;3.15;;
26822;SDS011;14852;51.910;8.878;2022-08-02T08:05:04;3.55;;;2.72;;
26822;SDS011;14852;51.910;8.878;2022-08-02T08:07:31;5.60;;;3.53;;
26822;SDS011;14852;51.910;8.878;2022-08-02T08:09:57;5.78;;;3.45;;
26822;SDS011;14852;51.910;8.878;2022-08-02T08:12:24;4.18;;;2.65;;
26822;SDS011;14852;51.910;8.878;2022-08-02T08:14:51;4.43;;;2.65;;
26822;SDS011;14852;51.910;8.878;2022-08-02T08:17:17;3.47;;;3.08;;
26822;SDS011;14852;51.910;8.878;2022-08-02T08:19:43;3.78;;;3.35;;
26822;SDS011;14852;51.910;8.878;2022-08-02T08:22:09;3.50;;;3.05;;
26822;SDS011;14852;51.910;8.878;2022-08-02T08:24:34;3.67;;;2.85;;
26822;SDS011;14852;51.910;8.878;2022-08-02T08:27:00;4.78;;;3.05;;
26822;SDS011;14852;51.910;8.878;2022-08-02T08:29:26;5.07;;;3.47;;
26822;SDS011;14852;51.910;8.878;2022-08-02T08:31:52;5.13;;;3.10;;
26822;SDS011;14852;51.910;8.878;2022-08-02T08:34:17;2.60;;;2.40;;
26822;SDS011;14852;51.910;8.878;2022-08-02T08:36:43;3.10;;;2.80;;
26822;SDS011;14852;51.910;8.878;2022-08-02T08:39:09;3.47;;;2.28;;
26822;SDS011;14852;51.910;8.878;2022-08-02T08:41:35;3.92;;;2.75;;
26822;SDS011;14852;51.910;8.878;2022-08-02T08:44:02;2.78;;;2.25;;
26822;SDS011;14852;51.910;8.878;2022-08-02T08:46:29;4.63;;;2.35;;
26822;SDS011;14852;51.910;8.878;2022-08-02T08:49:22;2.90;;;2.50;;
26822;SDS011;14852;51.910;8.878;2022-08-02T08:51:47;3.15;;;2.30;;
26822;SDS011;14852;51.910;8.878;2022-08-02T08:54:18;4.00;;;2.87;;
26822;SDS011;14852;51.910;8.878;2022-08-02T08:56:49;4.15;;;2.55;;
26822;SDS011;14852;51.910;8.878;2022-08-02T08:59:16;4.28;;;2.75;;
26822;SDS011;14852;51.910;8.878;2022-08-02T09:01:43;4.00;;;2.72;;
26822;SDS011;14852;51.910;8.878;2022-08-02T09:04:10;2.83;;;2.20;;
26822;SDS011;14852;51.910;8.878;2022-08-02T09:06:37;3.22;;;2.85;;
26822;SDS011;14852;51.910;8.878;2022-08-02T09:09:04;3.58;;;2.70;;
26822;SDS011;14852;51.910;8.878;2022-08-02T09:11:30;3.28;;;2.85;;
26822;SDS011;14852;51.910;8.878;2022-08-02T09:14:00;5.03;;;2.42;;
26822;SDS011;14852;51.910;8.878;2022-08-02T09:21:49;2.67;;;2.45;;
26822;SDS011;14852;51.910;8.878;2022-08-02T09:24:27;3.67;;;1.92;;
26822;SDS011;14852;51.910;8.878;2022-08-02T09:26:53;2.60;;;2.20;;
26822;SDS011;14852;51.910;8.878;2022-08-02T09:29:22;4.15;;;2.10;;
26822;SDS011;14852;51.910;8.878;2022-08-02T09:31:50;3.45;;;2.13;;
26822;SDS011;14852;51.910;8.878;2022-08-02T09:34:16;2.88;;;2.38;;
26822;SDS011;14852;51.910;8.878;2022-08-02T09:36:43;3.20;;;2.30;;
26822;SDS011;14852;51.910;8.878;2022-08-02T09:39:13;2.20;;;2.00;;
26822;SDS011;14852;51.910;8.878;2022-08-02T09:41:41;2.88;;;1.90;;
26822;SDS011;14852;51.910;8.878;2022-08-02T09:44:10;3.22;;;2.53;;
26822;SDS011;14852;51.910;8.878;2022-08-02T09:46:41;2.00;;;1.77;;
26822;SDS011;14852;51.910;8.878;2022-08-02T09:49:10;2.80;;;1.75;;
26822;SDS011;14852;51.910;8.878;2022-08-02T09:54:14;2.58;;;1.70;;
26822;SDS011;14852;51.910;8.878;2022-08-02T09:56:50;3.88;;;2.55;;
26822;SDS011;14852;51.910;8.878;2022-08-02T09:59:21;2.15;;;1.95;;
26822;SDS011;14852;51.910;8.878;2022-08-02T10:01:49;2.85;;;2.05;;
26822;SDS011;14852;51.910;8.878;2022-08-02T10:04:18;4.57;;;2.15;;
26822;SDS011;14852;51.910;8.878;2022-08-02T10:06:50;3.35;;;2.10;;
26822;SDS011;14852;51.910;8.878;2022-08-02T10:09:18;2.40;;;2.20;;
26822;SDS011;14852;51.910;8.878;2022-08-02T10:11:44;2.30;;;2.10;;
26822;SDS011;14852;51.910;8.878;2022-08-02T10:14:11;2.13;;;1.92;;
26822;SDS011;14852;51.910;8.878;2022-08-02T10:16:41;3.47;;;2.10;;
26822;SDS011;14852;51.910;8.878;2022-08-02T10:19:08;3.50;;;2.17;;
26822;SDS011;14852;51.910;8.878;2022-08-02T10:24:17;2.03;;;1.83;;
26822;SDS011;14852;51.910;8.878;2022-08-02T10:26:47;3.17;;;2.10;;
26822;SDS011;14852;51.910;8.878;2022-08-02T10:29:14;2.85;;;1.90;;
26822;SDS011;14852;51.910;8.878;2022-08-02T10:31:43;3.38;;;1.95;;
26822;SDS011;14852;51.910;8.878;2022-08-02T10:34:33;2.65;;;1.80;;
26822;SDS011;14852;51.910;8.878;2022-08-02T10:37:11;1.95;;;1.77;;
26822;SDS011;14852;51.910;8.878;2022-08-02T10:39:39;1.70;;;1.60;;
26822;SDS011;14852;51.910;8.878;2022-08-02T10:42:06;2.35;;;2.08;;
26822;SDS011;14852;51.910;8.878;2022-08-02T10:44:32;2.65;;;1.95;;
26822;SDS011;14852;51.910;8.878;2022-08-02T10:49:59;2.20;;;1.90;;
26822;SDS011;14852;51.910;8.878;2022-08-02T10:52:28;2.80;;;1.98;;
26822;SDS011;14852;51.910;8.878;2022-08-02T10:57:29;2.47;;;2.10;;
26822;SDS011;14852;51.910;8.878;2022-08-02T11:05:07;2.10;;;1.90;;
26822;SDS011;14852;51.910;8.878;2022-08-02T11:07:46;2.67;;;1.80;;
26822;SDS011;14852;51.910;8.878;2022-08-02T11:13:00;2.88;;;2.60;;
26822;SDS011;14852;51.910;8.878;2022-08-02T11:15:51;3.72;;;1.80;;
26822;SDS011;14852;51.910;8.878;2022-08-02T11:21:28;10.13;;;2.28;;
26822;SDS011;14852;51.910;8.878;2022-08-02T11:24:22;2.50;;;2.05;;
26822;SDS011;14852;51.910;8.878;2022-08-02T11:27:03;2.90;;;2.05;;
26822;SDS011;14852;51.910;8.878;2022-08-02T11:29:34;4.65;;;2.15;;
26822;SDS011;14852;51.910;8.878;2022-08-02T11:32:23;2.10;;;1.90;;
26822;SDS011;14852;51.910;8.878;2022-08-02T11:34:51;2.22;;;1.92;;
26822;SDS011;14852;51.910;8.878;2022-08-02T11:37:32;2.03;;;1.73;;
26822;SDS011;14852;51.910;8.878;2022-08-02T11:40:04;5.45;;;1.95;;
26822;SDS011;14852;51.910;8.878;2022-08-02T11:42:34;4.00;;;2.10;;
26822;SDS011;14852;51.910;8.878;2022-08-02T11:45:03;2.17;;;1.98;;
26822;SDS011;14852;51.910;8.878;2022-08-02T11:47:46;2.38;;;1.77;;
26822;SDS011;14852;51.910;8.878;2022-08-02T11:50:15;2.33;;;1.80;;
26822;SDS011;14852;51.910;8.878;2022-08-02T11:52:42;2.25;;;1.90;;
26822;SDS011;14852;51.910;8.878;2022-08-02T11:55:08;2.30;;;2.05;;
26822;SDS011;14852;51.910;8.878;2022-08-02T11:57:35;4.95;;;2.28;;
26822;SDS011;14852;51.910;8.878;2022-08-02T12:00:03;2.97;;;2.20;;
26822;SDS011;14852;51.910;8.878;2022-08-02T12:02:44;2.30;;;1.90;;
26822;SDS011;14852;51.910;8.878;2022-08-02T12:05:15;2.28;;;2.08;;
26822;SDS011;14852;51.910;8.878;2022-08-02T12:07:44;3.80;;;2.27;;
26822;SDS011;14852;51.910;8.878;2022-08-02T12:10:17;4.45;;;2.28;;
26822;SDS011;14852;51.910;8.878;2022-08-02T12:12:49;2.47;;;1.90;;
26822;SDS011;14852;51.910;8.878;2022-08-02T12:15:30;2.13;;;1.75;;
26822;SDS011;14852;51.910;8.878;2022-08-02T12:18:08;3.10;;;1.85;;
26822;SDS011;14852;51.910;8.878;2022-08-02T12:23:25;3.08;;;1.80;;
26822;SDS011;14852;51.910;8.878;2022-08-02T12:26:02;2.28;;;1.80;;
26822;SDS011;14852;51.910;8.878;2022-08-02T12:28:34;5.13;;;2.13;;
26822;SDS011;14852;51.910;8.878;2022-08-02T12:31:03;2.30;;;2.00;;
26822;SDS011;14852;51.910;8.878;2022-08-02T12:38:55;1.75;;;1.65;;
26822;SDS011;14852;51.910;8.878;2022-08-02T12:41:26;2.22;;;1.98;;
26822;SDS011;14852;51.910;8.878;2022-08-02T12:43:53;2.80;;;2.38;;
26822;SDS011;14852;51.910;8.878;2022-08-02T12:46:21;3.53;;;2.08;;
26822;SDS011;14852;51.910;8.878;2022-08-02T12:48:48;1.85;;;1.73;;
26822;SDS011;14852;51.910;8.878;2022-08-02T12:53:50;3.08;;;1.70;;
26822;SDS011;14852;51.910;8.878;2022-08-02T12:58:54;2.50;;;1.80;;
26822;SDS011;14852;51.910;8.878;2022-08-02T13:01:21;1.83;;;1.73;;
26822;SDS011;14852;51.910;8.878;2022-08-02T13:03:51;2.53;;;2.00;;
26822;SDS011;14852;51.910;8.878;2022-08-02T13:06:17;2.65;;;1.55;;
26822;SDS011;14852;51.910;8.878;2022-08-02T13:08:45;2.72;;;1.80;;
26822;SDS011;14852;51.910;8.878;2022-08-02T13:11:11;2.00;;;1.70;;
26822;SDS011;14852;51.910;8.878;2022-08-02T13:13:36;3.53;;;2.15;;
26822;SDS011;14852;51.910;8.878;2022-08-02T13:16:02;2.03;;;1.80;;
26822;SDS011;14852;51.910;8.878;2022-08-02T13:18:28;3.03;;;2.08;;
26822;SDS011;14852;51.910;8.878;2022-08-02T13:20:54;2.50;;;2.05;;
26822;SDS011;14852;51.910;8.878;2022-08-02T13:23:20;1.75;;;1.65;;
26822;SDS011;14852;51.910;8.878;2022-08-02T13:25:46;3.63;;;2.05;;
26822;SDS011;14852;51.910;8.878;2022-08-02T13:28:11;3.05;;;2.17;;
26822;SDS011;14852;51.910;8.878;2022-08-02T13:30:37;3.28;;;2.10;;
26822;SDS011;14852;51.910;8.878;2022-08-02T13:33:03;3.38;;;2.10;;
26822;SDS011;14852;51.910;8.878;2022-08-02T13:35:29;2.78;;;2.22;;
26822;SDS011;14852;51.910;8.878;2022-08-02T13:37:55;1.83;;;1.65;;
26822;SDS011;14852;51.910;8.878;2022-08-02T13:40:21;2.10;;;1.70;;
26822;SDS011;14852;51.910;8.878;2022-08-02T13:42:47;2.33;;;1.88;;
26822;SDS011;14852;51.910;8.878;2022-08-02T13:45:13;4.32;;;2.00;;
26822;SDS011;14852;51.910;8.878;2022-08-02T13:47:40;3.55;;;1.98;;
26822;SDS011;14852;51.910;8.878;2022-08-02T13:50:08;2.88;;;2.28;;
26822;SDS011;14852;51.910;8.878;2022-08-02T13:52:34;3.58;;;2.05;;
26822;SDS011;14852;51.910;8.878;2022-08-02T13:55:00;2.40;;;2.03;;
26822;SDS011;14852;51.910;8.878;2022-08-02T13:57:26;3.97;;;2.28;;
26822;SDS011;14852;51.910;8.878;2022-08-02T13:59:52;3.42;;;2.05;;
26822;SDS011;14852;51.910;8.878;2022-08-02T14:02:18;2.75;;;2.10;;
26822;SDS011;14852;51.910;8.878;2022-08-02T14:04:44;3.20;;;1.70;;
26822;SDS011;14852;51.910;8.878;2022-08-02T14:07:10;2.08;;;1.80;;
26822;SDS011;14852;51.910;8.878;2022-08-02T14:09:35;2.33;;;2.05;;
26822;SDS011;14852;51.910;8.878;2022-08-02T14:12:02;2.05;;;1.80;;
26822;SDS011;14852;51.910;8.878;2022-08-02T14:14:31;3.03;;;2.03;;
26822;SDS011;14852;51.910;8.878;2022-08-02T14:16:57;4.15;;;2.20;;
26822;SDS011;14852;51.910;8.878;2022-08-02T14:19:23;2.35;;;1.98;;
26822;SDS011;14852;51.910;8.878;2022-08-02T14:21:49;2.97;;;1.70;;
26822;SDS011;14852;51.910;8.878;2022-08-02T14:24:16;1.75;;;1.50;;
26822;SDS011;14852;51.910;8.878;2022-08-02T14:26:44;2.20;;;1.60;;
26822;SDS011;14852;51.910;8.878;2022-08-02T14:29:12;3.38;;;2.25;;
26822;SDS011;14852;51.910;8.878;2022-08-02T14:31:39;1.83;;;1.60;;
26822;SDS011;14852;51.910;8.878;2022-08-02T14:34:05;2.10;;;1.90;;
26822;SDS011;14852;51.910;8.878;2022-08-02T14:36:31;2.03;;;1.83;;
26822;SDS011;14852;51.910;8.878;2022-08-02T14:38:57;2.78;;;2.17;;
26822;SDS011;14852;51.910;8.878;2022-08-02T14:41:23;2.33;;;1.70;;
26822;SDS011;14852;51.910;8.878;2022-08-02T14:43:48;1.60;;;1.45;;
26822;SDS011;14852;51.910;8.878;2022-08-02T14:46:37;1.70;;;1.60;;
26822;SDS011;14852;51.910;8.878;2022-08-02T14:49:05;1.45;;;1.35;;
26822;SDS011;14852;51.910;8.878;2022-08-02T14:51:34;1.70;;;1.60;;
26822;SDS011;14852;51.910;8.878;2022-08-02T14:54:02;2.67;;;2.00;;
26822;SDS011;14852;51.910;8.878;2022-08-02T14:56:30;2.50;;;1.90;;
26822;SDS011;14852;51.910;8.878;2022-08-02T14:58:56;2.92;;;1.80;;
26822;SDS011;14852;51.910;8.878;2022-08-02T15:01:22;2.05;;;1.55;;
26822;SDS011;14852;51.910;8.878;2022-08-02T15:03:49;2.25;;;2.00;;
26822;SDS011;14852;51.910;8.878;2022-08-02T15:06:15;1.90;;;1.70;;
26822;SDS011;14852;51.910;8.878;2022-08-02T15:08:41;2.42;;;1.70;;
26822;SDS011;14852;51.910;8.878;2022-08-02T15:11:07;2.30;;;1.50;;
26822;SDS011;14852;51.910;8.878;2022-08-02T15:13:33;3.35;;;1.90;;
26822;SDS011;14852;51.910;8.878;2022-08-02T15:15:59;2.13;;;1.77;;
26822;SDS011;14852;51.910;8.878;2022-08-02T15:18:25;2.38;;;1.90;;
26822;SDS011;14852;51.910;8.878;2022-08-02T15:20:51;3.60;;;2.13;;
26822;SDS011;14852;51.910;8.878;2022-08-02T15:23:18;3.83;;;1.85;;
26822;SDS011;14852;51.910;8.878;2022-08-02T15:25:44;4.13;;;2.33;;
26822;SDS011;14852;51.910;8.878;2022-08-02T15:28:10;2.97;;;2.25;;
26822;SDS011;14852;51.910;8.878;2022-08-02T15:30:36;1.90;;;1.58;;
26822;SDS011;14852;51.910;8.878;2022-08-02T15:33:03;1.88;;;1.60;;
26822;SDS011;14852;51.910;8.878;2022-08-02T15:35:30;2.30;;;1.90;;
26822;SDS011;14852;51.910;8.878;2022-08-02T15:37:57;3.35;;;2.05;;
26822;SDS011;14852;51.910;8.878;2022-08-02T15:40:23;2.20;;;2.00;;
26822;SDS011;14852;51.910;8.878;2022-08-02T15:42:49;3.45;;;2.22;;
26822;SDS011;14852;51.910;8.878;2022-08-02T15:45:15;2.65;;;1.83;;
26822;SDS011;14852;51.910;8.878;2022-08-02T15:47:43;3.25;;;2.10;;
26822;SDS011;14852;51.910;8.878;2022-08-02T15:50:09;2.47;;;2.10;;